createdAt,value
2023-05-13T00:02:04.074Z,15.47
2023-05-13T00:04:34.195Z,15.44
2023-05-13T00:07:04.366Z,15.41
2023-05-13T00:09:37.300Z,15.40
2023-05-13T00:12:08.323Z,15.38
2023-05-13T00:14:38.604Z,15.35
2023-05-13T00:17:09.008Z,15.34
2023-05-13T00:19:39.180Z,15.33
2023-05-13T00:22:09.386Z,15.30
2023-05-13T00:24:42.431Z,15.33
2023-05-13T00:27:12.636Z,15.31
2023-05-13T00:29:42.816Z,15.32
2023-05-13T00:32:13.175Z,15.30
2023-05-13T00:34:43.338Z,15.31
2023-05-13T00:37:14.369Z,15.30
2023-05-13T00:39:47.313Z,15.27
2023-05-13T00:42:17.868Z,15.20
2023-05-13T00:44:48.557Z,15.14
2023-05-13T00:47:20.255Z,15.11
2023-05-13T00:49:50.690Z,15.06
2023-05-13T00:52:21.006Z,15.04
2023-05-13T00:54:53.997Z,14.99
2023-05-13T00:57:24.472Z,15.01
2023-05-13T00:59:55.107Z,14.97
2023-05-13T01:02:29.490Z,14.94
2023-05-13T01:05:12.183Z,14.87
2023-05-13T01:07:47.923Z,14.83
2023-05-13T01:10:27.355Z,14.77
2023-05-13T01:13:01.889Z,14.71
2023-05-13T01:15:32.487Z,14.62
2023-05-13T01:18:08.959Z,14.57
2023-05-13T01:20:41.549Z,14.51
2023-05-13T01:23:14.857Z,14.46
2023-05-13T01:25:45.459Z,14.44
2023-05-13T01:28:16.657Z,14.41
2023-05-13T01:30:51.892Z,14.38
2023-05-13T01:33:22.392Z,14.36
2023-05-13T01:35:52.761Z,14.33
2023-05-13T01:38:26.042Z,14.31
2023-05-13T01:40:59.633Z,14.29
2023-05-13T01:43:34.329Z,14.26
2023-05-13T01:46:15.397Z,14.22
2023-05-13T01:48:45.667Z,14.15
2023-05-13T01:51:16.047Z,14.09
2023-05-13T01:53:50.400Z,14.03
2023-05-13T01:56:22.408Z,13.97
2023-05-13T01:58:52.851Z,13.89
2023-05-13T02:01:23.124Z,13.84
2023-05-13T02:03:54.032Z,13.81
2023-05-13T02:06:24.288Z,13.77
2023-05-13T02:08:57.531Z,13.72
2023-05-13T02:11:27.902Z,13.69
2023-05-13T02:14:00.752Z,13.65
2023-05-13T02:16:30.993Z,13.62
2023-05-13T02:19:01.518Z,13.55
2023-05-13T02:21:32.451Z,13.53
2023-05-13T02:24:05.340Z,13.48
2023-05-13T02:26:35.507Z,13.45
2023-05-13T02:29:05.960Z,13.42
2023-05-13T02:31:37.032Z,13.36
2023-05-13T02:34:07.468Z,13.29
2023-05-13T02:36:37.703Z,13.25
2023-05-13T02:39:12.224Z,13.17
2023-05-13T02:41:42.611Z,13.13
2023-05-13T02:44:12.802Z,13.07
2023-05-13T02:46:44.348Z,12.99
2023-05-13T02:49:14.740Z,12.91
2023-05-13T02:51:45.250Z,12.84
2023-05-13T02:54:18.200Z,12.83
2023-05-13T02:56:48.322Z,12.81
2023-05-13T02:59:18.478Z,12.80
2023-05-13T03:01:49.614Z,12.76
2023-05-13T03:04:21.075Z,12.71
2023-05-13T03:06:53.195Z,12.68
2023-05-13T03:09:26.016Z,12.65
2023-05-13T03:11:56.190Z,12.61
2023-05-13T03:14:26.640Z,12.61
2023-05-13T03:16:57.220Z,12.59
2023-05-13T03:19:27.377Z,12.58
2023-05-13T03:21:57.933Z,12.56
2023-05-13T03:24:30.870Z,12.57
2023-05-13T03:27:01.757Z,12.51
2023-05-13T03:29:32.727Z,12.49
2023-05-13T03:32:03.075Z,12.46
2023-05-13T03:34:33.458Z,12.48
2023-05-13T03:37:03.667Z,12.46
2023-05-13T03:39:37.314Z,12.45
2023-05-13T03:42:07.993Z,12.44
2023-05-13T03:44:39.135Z,12.42
2023-05-13T03:47:09.890Z,12.43
2023-05-13T03:49:41.207Z,12.41
2023-05-13T03:52:11.403Z,12.41
2023-05-13T03:54:44.157Z,12.43
2023-05-13T03:57:14.297Z,12.43
2023-05-13T03:59:44.417Z,12.44
2023-05-13T04:02:14.622Z,12.45
2023-05-13T04:04:44.878Z,12.43
2023-05-13T04:07:15.010Z,12.41
2023-05-13T04:09:47.836Z,12.37
2023-05-13T04:12:18.421Z,12.38
2023-05-13T04:14:48.639Z,12.41
2023-05-13T04:17:18.850Z,12.43
2023-05-13T04:19:49.077Z,12.48
2023-05-13T04:22:19.185Z,12.50
2023-05-13T04:24:56.658Z,12.55
2023-05-13T04:27:27.215Z,12.59
2023-05-13T04:30:04.594Z,12.61
2023-05-13T04:32:36.813Z,12.62
2023-05-13T04:35:07.613Z,12.67
2023-05-13T04:37:38.744Z,12.72
2023-05-13T04:40:15.015Z,12.78
2023-05-13T04:42:45.632Z,12.82
2023-05-13T04:45:15.929Z,12.91
2023-05-13T04:47:46.174Z,12.97
2023-05-13T04:50:16.406Z,13.00
2023-05-13T04:52:47.828Z,13.08
2023-05-13T04:55:22.992Z,13.16
2023-05-13T04:57:53.866Z,13.24
2023-05-13T05:00:24.434Z,13.30
2023-05-13T05:02:56.904Z,13.41
2023-05-13T05:05:28.240Z,13.53
2023-05-13T05:07:58.455Z,13.62
2023-05-13T05:10:31.855Z,13.71
2023-05-13T05:13:04.004Z,13.78
2023-05-13T05:15:34.315Z,13.91
2023-05-13T05:18:07.395Z,14.02
2023-05-13T05:20:40.453Z,14.13
2023-05-13T05:23:16.455Z,14.27
2023-05-13T05:25:53.207Z,14.37
2023-05-13T05:28:28.256Z,14.47
2023-05-13T05:30:59.612Z,14.58
2023-05-13T05:33:31.354Z,14.75
2023-05-13T05:36:01.584Z,14.92
2023-05-13T05:38:32.509Z,15.05
2023-05-13T05:41:07.048Z,15.18
2023-05-13T05:43:37.182Z,15.29
2023-05-13T05:46:07.680Z,15.34
2023-05-13T05:48:38.951Z,15.44
2023-05-13T05:51:09.498Z,15.52
2023-05-13T05:53:41.360Z,15.57
2023-05-13T05:56:16.735Z,15.57
2023-05-13T05:58:48.397Z,15.65
2023-05-13T06:01:19.932Z,15.77
2023-05-13T06:03:52.257Z,15.87
2023-05-13T06:06:24.938Z,16.01
2023-05-13T06:08:55.225Z,16.17
2023-05-13T06:11:28.112Z,16.30
2023-05-13T06:13:58.228Z,16.51
2023-05-13T06:16:28.570Z,16.66
2023-05-13T06:18:58.929Z,16.74
2023-05-13T06:21:29.137Z,16.85
2023-05-13T06:23:59.283Z,16.92
2023-05-13T06:26:32.702Z,17.05
2023-05-13T06:29:03.301Z,17.25
2023-05-13T06:31:37.335Z,17.31
2023-05-13T06:34:07.573Z,17.41
2023-05-13T06:36:37.730Z,17.46
2023-05-13T06:39:10.739Z,17.55
2023-05-13T06:41:44.799Z,17.68
2023-05-13T06:44:18.606Z,17.76
2023-05-13T06:46:50.306Z,17.89
2023-05-13T06:49:21.506Z,18.06
2023-05-13T06:51:51.785Z,18.25
2023-05-13T06:54:21.950Z,18.24
2023-05-13T06:56:54.742Z,18.32
2023-05-13T06:59:24.898Z,18.24
2023-05-13T07:01:54.990Z,18.32
2023-05-13T07:04:25.146Z,18.38
2023-05-13T07:06:55.313Z,18.46
2023-05-13T07:09:25.452Z,18.44
2023-05-13T07:11:58.347Z,18.54
2023-05-13T07:14:28.570Z,18.87
2023-05-13T07:16:58.967Z,18.94
2023-05-13T07:19:29.325Z,19.03
2023-05-13T07:21:59.499Z,19.18
2023-05-13T07:24:29.586Z,19.37
2023-05-13T07:27:04.060Z,19.56
2023-05-13T07:29:34.388Z,19.80
2023-05-13T07:32:07.415Z,19.78
2023-05-13T07:34:37.556Z,19.85
2023-05-13T07:37:08.615Z,19.94
2023-05-13T07:39:38.757Z,20.01
2023-05-13T07:42:11.749Z,20.12
2023-05-13T07:44:41.867Z,20.28
2023-05-13T07:47:13.684Z,20.34
2023-05-13T07:49:44.100Z,20.28
2023-05-13T07:52:14.545Z,20.48
2023-05-13T07:54:44.752Z,20.72
2023-05-13T07:57:17.503Z,20.87
2023-05-13T07:59:48.101Z,20.81
2023-05-13T08:02:18.333Z,21.05
2023-05-13T08:04:48.899Z,21.15
2023-05-13T08:07:19.193Z,21.45
2023-05-13T08:09:49.324Z,21.49
2023-05-13T08:12:22.125Z,21.69
2023-05-13T08:14:52.282Z,21.82
2023-05-13T08:17:22.844Z,21.84
2023-05-13T08:19:53.540Z,22.26
2023-05-13T08:22:23.766Z,22.63
2023-05-13T08:24:54.057Z,23.12
2023-05-13T08:27:26.845Z,23.61
2023-05-13T08:29:57.026Z,23.00
2023-05-13T08:32:27.285Z,22.42
2023-05-13T08:34:57.935Z,23.36
2023-05-13T08:37:28.514Z,23.82
2023-05-13T08:40:00.854Z,22.93
2023-05-13T08:42:35.984Z,22.35
2023-05-13T08:45:08.002Z,22.07
2023-05-13T08:47:44.751Z,22.69
2023-05-13T08:50:15.705Z,23.68
2023-05-13T08:52:46.749Z,24.13
2023-05-13T08:55:16.922Z,24.75
2023-05-13T08:57:49.766Z,25.86
2023-05-13T09:00:21.593Z,25.24
2023-05-13T09:02:53.176Z,24.32
2023-05-13T09:05:25.396Z,23.85
2023-05-13T09:07:57.520Z,24.27
2023-05-13T09:10:27.694Z,24.30
2023-05-13T09:13:02.011Z,23.44
2023-05-13T09:15:32.734Z,24.89
2023-05-13T09:18:05.235Z,26.14
2023-05-13T09:20:36.387Z,26.73
2023-05-13T09:23:09.641Z,26.92
2023-05-13T09:25:40.545Z,25.16
2023-05-13T09:28:17.906Z,24.16
2023-05-13T09:30:57.491Z,24.57
2023-05-13T09:33:33.176Z,24.48
2023-05-13T09:36:03.704Z,24.36
2023-05-13T09:38:37.456Z,24.25
2023-05-13T09:41:08.441Z,24.86
2023-05-13T09:43:42.302Z,25.66
2023-05-13T09:46:12.737Z,25.61
2023-05-13T09:48:45.938Z,26.48
2023-05-13T09:51:18.513Z,26.51
2023-05-13T09:53:50.717Z,25.60
2023-05-13T09:56:24.245Z,26.17
2023-05-13T09:58:57.324Z,25.47
2023-05-13T10:01:28.567Z,24.49
2023-05-13T10:03:59.858Z,23.73
2023-05-13T10:06:31.419Z,23.20
2023-05-13T10:09:06.190Z,22.74
2023-05-13T10:11:36.936Z,22.27
2023-05-13T10:14:10.262Z,22.03
2023-05-13T10:16:41.794Z,21.87
2023-05-13T10:19:12.938Z,21.88
2023-05-13T10:21:44.304Z,21.88
2023-05-13T10:24:14.984Z,21.86
2023-05-13T10:26:45.237Z,21.95
2023-05-13T10:29:18.116Z,21.97
2023-05-13T10:31:48.766Z,22.39
2023-05-13T10:34:19.128Z,22.15
2023-05-13T10:37:12.451Z,21.77
2023-05-13T10:40:04.254Z,21.51
2023-05-13T10:42:43.526Z,21.18
2023-05-13T10:45:20.124Z,20.99
2023-05-13T10:47:53.634Z,20.80
2023-05-13T10:50:28.006Z,20.75
2023-05-13T10:53:03.524Z,20.68
2023-05-13T10:55:33.933Z,20.44
2023-05-13T10:58:10.124Z,20.24
2023-05-13T11:00:44.351Z,20.16
2023-05-13T11:03:17.014Z,20.07
2023-05-13T11:05:49.257Z,20.00
2023-05-13T11:08:40.775Z,19.70
2023-05-13T11:11:21.364Z,19.59
2023-05-13T11:13:53.430Z,19.61
2023-05-13T11:16:26.929Z,19.54
2023-05-13T11:18:57.252Z,19.48
2023-05-13T11:21:39.903Z,19.46
2023-05-13T11:24:11.254Z,19.49
2023-05-13T11:26:49.279Z,19.44
2023-05-13T11:29:30.806Z,19.43
2023-05-13T11:32:04.806Z,19.40
2023-05-13T11:34:36.320Z,19.41
2023-05-13T11:37:13.736Z,19.48
2023-05-13T11:39:44.349Z,19.58
2023-05-13T11:42:15.356Z,19.59
2023-05-13T11:44:49.562Z,19.50
2023-05-13T11:47:29.062Z,19.67
2023-05-13T11:49:59.592Z,19.73
2023-05-13T11:52:29.728Z,19.61
2023-05-13T11:55:01.020Z,19.53
2023-05-13T11:57:32.972Z,19.48
2023-05-13T12:00:05.095Z,19.41
2023-05-13T12:02:41.060Z,19.23
2023-05-13T12:05:13.188Z,19.31
2023-05-13T12:07:43.416Z,19.20
2023-05-13T12:10:13.716Z,19.11
2023-05-13T12:12:46.488Z,19.07
2023-05-13T12:15:19.054Z,19.01
2023-05-13T12:17:53.396Z,18.96
2023-05-13T12:20:25.230Z,18.98
2023-05-13T12:22:57.316Z,19.05
2023-05-13T12:25:43.442Z,19.13
2023-05-13T12:28:17.080Z,19.26
2023-05-13T12:30:53.659Z,19.33
2023-05-13T12:33:28.003Z,19.50
2023-05-13T12:36:17.840Z,19.72
2023-05-13T12:39:00.267Z,19.86
2023-05-13T12:41:32.431Z,19.96
2023-05-13T12:44:06.913Z,20.26
2023-05-13T12:46:37.991Z,20.73
2023-05-13T12:49:13.026Z,20.99
2023-05-13T12:51:43.200Z,21.01
2023-05-13T12:54:13.644Z,21.10
2023-05-13T12:56:43.911Z,21.18
2023-05-13T12:59:14.722Z,21.08
2023-05-13T13:01:45.141Z,21.06
2023-05-13T13:04:19.264Z,21.14
2023-05-13T13:06:49.642Z,21.46
2023-05-13T13:09:19.853Z,21.52
2023-05-13T13:11:49.996Z,21.55
2023-05-13T13:14:20.151Z,21.46
2023-05-13T13:16:50.456Z,21.24
2023-05-13T13:19:23.363Z,21.19
2023-05-13T13:21:53.592Z,21.24
2023-05-13T13:24:23.709Z,21.48
2023-05-13T13:26:55.001Z,21.80
2023-05-13T13:29:26.371Z,21.93
2023-05-13T13:31:56.815Z,21.75
2023-05-13T13:34:29.830Z,21.48
2023-05-13T13:37:00.027Z,21.54
2023-05-13T13:39:30.261Z,21.80
2023-05-13T13:42:00.419Z,21.98
2023-05-13T13:44:30.535Z,22.27
2023-05-13T13:47:00.698Z,22.39
2023-05-13T13:49:33.627Z,23.24
2023-05-13T13:52:03.928Z,23.12
2023-05-13T13:54:34.060Z,22.75
2023-05-13T13:57:04.258Z,22.53
2023-05-13T13:59:34.648Z,22.45
2023-05-13T14:02:04.829Z,23.11
2023-05-13T14:04:37.584Z,23.04
2023-05-13T14:07:09.261Z,22.87
2023-05-13T14:09:39.787Z,23.45
2023-05-13T14:12:10.406Z,24.15
2023-05-13T14:14:40.810Z,23.90
2023-05-13T14:17:12.347Z,24.77
2023-05-13T14:19:45.926Z,25.65
2023-05-13T14:22:16.213Z,25.32
2023-05-13T14:24:49.550Z,23.59
2023-05-13T14:27:19.777Z,22.44
2023-05-13T14:29:50.466Z,22.08
2023-05-13T14:32:20.758Z,22.03
2023-05-13T14:34:53.655Z,21.82
2023-05-13T14:37:23.860Z,22.02
2023-05-13T14:39:54.097Z,22.29
2023-05-13T14:42:24.313Z,22.21
2023-05-13T14:44:54.420Z,22.83
2023-05-13T14:47:25.148Z,23.79
2023-05-13T14:49:58.044Z,23.57
2023-05-13T14:52:28.703Z,22.93
2023-05-13T14:54:58.921Z,22.29
2023-05-13T14:57:29.182Z,21.83
2023-05-13T15:00:00.141Z,21.50
2023-05-13T15:02:30.678Z,21.12
2023-05-13T15:05:03.602Z,20.91
2023-05-13T15:07:33.809Z,20.84
2023-05-13T15:10:04.323Z,20.70
2023-05-13T15:12:34.561Z,20.64
2023-05-13T15:15:04.765Z,20.72
2023-05-13T15:17:35.057Z,20.65
2023-05-13T15:20:08.895Z,20.90
2023-05-13T15:22:39.164Z,21.24
2023-05-13T15:25:10.310Z,21.41
2023-05-13T15:27:40.950Z,21.42
2023-05-13T15:30:12.759Z,21.31
2023-05-13T15:32:42.904Z,21.16
2023-05-13T15:35:18.359Z,20.97
2023-05-13T15:37:48.620Z,20.80
2023-05-13T15:40:18.806Z,20.68
2023-05-13T15:42:49.010Z,20.77
2023-05-13T15:45:21.145Z,20.80
2023-05-13T15:47:51.816Z,20.55
2023-05-13T15:50:26.210Z,20.33
2023-05-13T15:52:57.438Z,20.23
2023-05-13T15:55:27.747Z,20.24
2023-05-13T15:57:58.019Z,20.25
2023-05-13T16:00:28.266Z,20.47
2023-05-13T16:02:58.533Z,20.52
2023-05-13T16:05:31.575Z,20.55
2023-05-13T16:08:01.707Z,20.47
2023-05-13T16:10:32.274Z,20.39
2023-05-13T16:13:02.716Z,20.29
2023-05-13T16:15:33.066Z,20.25
2023-05-13T16:18:03.800Z,20.22
2023-05-13T16:20:36.676Z,19.99
2023-05-13T16:23:06.867Z,19.76
2023-05-13T16:25:37.710Z,19.56
2023-05-13T16:28:08.084Z,19.44
2023-05-13T16:30:38.877Z,19.28
2023-05-13T16:33:09.804Z,19.20
2023-05-13T16:35:42.819Z,19.01
2023-05-13T16:38:12.979Z,18.85
2023-05-13T16:40:43.258Z,18.85
2023-05-13T16:43:13.453Z,18.78
2023-05-13T16:45:44.091Z,18.64
2023-05-13T16:48:14.634Z,18.67
2023-05-13T16:50:47.923Z,18.64
2023-05-13T16:53:18.304Z,18.51
2023-05-13T16:55:49.743Z,18.41
2023-05-13T16:58:20.388Z,18.38
2023-05-13T17:00:50.722Z,18.32
2023-05-13T17:03:21.043Z,18.42
2023-05-13T17:05:53.818Z,18.36
2023-05-13T17:08:24.630Z,18.28
2023-05-13T17:10:54.804Z,18.22
2023-05-13T17:13:24.991Z,18.13
2023-05-13T17:15:55.149Z,18.13
2023-05-13T17:18:26.623Z,18.07
2023-05-13T17:21:00.256Z,18.17
2023-05-13T17:23:30.423Z,18.21
2023-05-13T17:26:00.670Z,18.14
2023-05-13T17:28:30.929Z,18.15
2023-05-13T17:31:01.251Z,18.24
2023-05-13T17:33:31.630Z,18.26
2023-05-13T17:36:04.401Z,18.25
2023-05-13T17:38:34.634Z,18.28
2023-05-13T17:41:05.024Z,18.26
2023-05-13T17:43:35.287Z,18.26
2023-05-13T17:46:05.895Z,18.24
2023-05-13T17:48:36.331Z,18.19
2023-05-13T17:51:09.337Z,18.13
2023-05-13T17:53:39.516Z,18.16
2023-05-13T17:56:10.764Z,18.16
2023-05-13T17:58:41.023Z,18.14
2023-05-13T18:01:11.287Z,18.10
2023-05-13T18:03:41.440Z,18.04
2023-05-13T18:06:14.295Z,17.96
2023-05-13T18:08:44.691Z,17.95
2023-05-13T18:11:14.859Z,17.85
2023-05-13T18:13:45.034Z,17.81
2023-05-13T18:16:17.153Z,17.75
2023-05-13T18:18:49.000Z,17.65
2023-05-13T18:21:23.864Z,17.62
2023-05-13T18:23:54.279Z,17.63
2023-05-13T18:26:24.571Z,17.71
2023-05-13T18:28:54.783Z,17.75
2023-05-13T18:31:25.005Z,17.71
2023-05-13T18:33:55.324Z,17.65
2023-05-13T18:36:28.214Z,17.58
2023-05-13T18:38:58.503Z,17.57
2023-05-13T18:41:28.847Z,17.54
2023-05-13T18:43:59.086Z,17.51
2023-05-13T18:46:29.522Z,17.44
2023-05-13T18:49:00.638Z,17.34
2023-05-13T18:51:34.049Z,17.26
2023-05-13T18:54:04.457Z,17.22
2023-05-13T18:56:35.040Z,17.31
2023-05-13T18:59:05.237Z,17.34
2023-05-13T19:01:35.483Z,17.38
2023-05-13T19:04:05.839Z,17.37
2023-05-13T19:06:38.840Z,17.27
2023-05-13T19:09:09.160Z,17.34
2023-05-13T19:11:39.354Z,17.29
2023-05-13T19:14:09.772Z,17.31
2023-05-13T19:16:42.367Z,17.19
2023-05-13T19:19:12.944Z,17.20
2023-05-13T19:21:45.751Z,17.21
2023-05-13T19:24:15.902Z,17.20
2023-05-13T19:26:46.240Z,17.15
2023-05-13T19:29:16.445Z,17.15
2023-05-13T19:31:46.603Z,17.13
2023-05-13T19:34:17.561Z,17.16
2023-05-13T19:36:51.003Z,17.16
2023-05-13T19:39:21.335Z,17.22
2023-05-13T19:41:51.501Z,17.25
2023-05-13T19:44:21.686Z,17.24
2023-05-13T19:46:51.860Z,17.17
2023-05-13T19:49:22.235Z,17.06
2023-05-13T19:51:55.898Z,17.09
2023-05-13T19:54:26.164Z,17.07
2023-05-13T19:56:56.493Z,17.07
2023-05-13T19:59:26.888Z,17.08
2023-05-13T20:01:57.322Z,17.10
2023-05-13T20:04:27.504Z,17.10
2023-05-13T20:07:00.708Z,17.12
2023-05-13T20:09:30.861Z,17.13
2023-05-13T20:12:01.589Z,17.15
2023-05-13T20:14:45.549Z,17.08
2023-05-13T20:17:18.404Z,17.05
2023-05-13T20:19:49.369Z,16.97
2023-05-13T20:22:22.629Z,16.96
2023-05-13T20:24:54.560Z,16.98
2023-05-13T20:27:24.753Z,16.97
2023-05-13T20:29:55.947Z,16.98
2023-05-13T20:32:27.670Z,16.93
2023-05-13T20:34:57.849Z,16.86
2023-05-13T20:37:31.377Z,16.79
2023-05-13T20:40:01.596Z,16.75
2023-05-13T20:42:32.150Z,16.67
2023-05-13T20:45:02.412Z,16.62
2023-05-13T20:47:32.652Z,16.57
2023-05-13T20:50:02.933Z,16.52
2023-05-13T20:52:35.786Z,16.42
2023-05-13T20:55:05.914Z,16.35
2023-05-13T20:57:36.065Z,16.31
2023-05-13T21:00:07.496Z,16.33
2023-05-13T21:02:37.677Z,16.26
2023-05-13T21:05:08.991Z,16.17
2023-05-13T21:07:41.759Z,16.14
2023-05-13T21:10:12.634Z,16.07
2023-05-13T21:12:47.960Z,16.00
2023-05-13T21:15:18.480Z,15.96
2023-05-13T21:17:49.239Z,15.93
2023-05-13T21:20:19.662Z,15.89
2023-05-13T21:22:52.561Z,15.89
2023-05-13T21:25:22.932Z,15.84
2023-05-13T21:27:53.244Z,15.84
2023-05-13T21:30:24.104Z,15.77
2023-05-13T21:32:54.859Z,15.74
2023-05-13T21:35:25.267Z,15.73
2023-05-13T21:38:11.011Z,15.70
2023-05-13T21:40:42.392Z,15.65
2023-05-13T21:43:13.447Z,15.61
2023-05-13T21:45:44.112Z,15.59
2023-05-13T21:48:14.673Z,15.60
2023-05-13T21:50:45.026Z,15.59
2023-05-13T21:53:17.916Z,15.53
2023-05-13T21:55:48.082Z,15.55
2023-05-13T21:58:19.416Z,15.59
2023-05-13T22:00:50.425Z,15.62
2023-05-13T22:03:20.938Z,15.63
2023-05-13T22:05:53.786Z,15.64
2023-05-13T22:08:26.556Z,15.64
2023-05-13T22:10:56.799Z,15.57
2023-05-13T22:13:27.313Z,15.63
2023-05-13T22:15:57.673Z,15.64
2023-05-13T22:18:28.014Z,15.62
2023-05-13T22:20:59.719Z,15.61
2023-05-13T22:23:32.510Z,15.58
2023-05-13T22:26:02.875Z,15.53
2023-05-13T22:28:33.021Z,15.52
2023-05-13T22:31:03.308Z,15.48
2023-05-13T22:33:33.619Z,15.43
2023-05-13T22:36:03.812Z,15.41
2023-05-13T22:38:37.293Z,15.38
2023-05-13T22:41:07.743Z,15.37
2023-05-13T22:43:37.950Z,15.32
2023-05-13T22:46:08.346Z,15.29
2023-05-13T22:48:38.517Z,15.24
2023-05-13T22:51:08.715Z,15.20
2023-05-13T22:53:41.575Z,15.16
2023-05-13T22:56:11.895Z,15.14
2023-05-13T22:58:42.008Z,15.13
2023-05-13T23:01:12.175Z,15.08
2023-05-13T23:03:42.428Z,15.01
2023-05-13T23:06:13.674Z,14.94
2023-05-13T23:08:46.501Z,14.85
2023-05-13T23:11:16.680Z,14.84
2023-05-13T23:13:46.858Z,14.78
2023-05-13T23:16:17.069Z,14.74
2023-05-13T23:18:47.316Z,14.72
2023-05-13T23:21:17.648Z,14.72
2023-05-13T23:23:50.600Z,14.71
2023-05-13T23:26:20.702Z,14.66
2023-05-13T23:28:50.937Z,14.65
2023-05-13T23:31:21.166Z,14.60
2023-05-13T23:33:51.377Z,14.56
2023-05-13T23:36:21.604Z,14.56
2023-05-13T23:38:55.029Z,14.57
2023-05-13T23:41:25.147Z,14.58
2023-05-13T23:43:57.292Z,14.58
2023-05-13T23:46:27.626Z,14.60
2023-05-13T23:49:00.107Z,14.58
2023-05-13T23:51:30.312Z,14.59
2023-05-13T23:54:03.135Z,14.56
2023-05-13T23:56:33.312Z,14.60
2023-05-13T23:59:03.556Z,14.59
